createdAt,value
2022-09-25T00:02:00.514Z,11.27
2022-09-25T00:04:27.201Z,6.53
2022-09-25T00:06:53.817Z,7.38
2022-09-25T00:09:20.937Z,5.63
2022-09-25T00:11:47.607Z,6.40
2022-09-25T00:14:14.246Z,6.22
2022-09-25T00:16:40.931Z,6.45
2022-09-25T00:19:26.134Z,5.93
2022-09-25T00:21:53.663Z,6.03
2022-09-25T00:24:20.317Z,7.93
2022-09-25T00:26:46.953Z,7.03
2022-09-25T00:29:17.978Z,6.07
2022-09-25T00:31:44.671Z,8.68
2022-09-25T00:34:11.635Z,6.85
2022-09-25T00:36:38.363Z,7.57
2022-09-25T00:39:05.368Z,6.38
2022-09-25T00:41:32.168Z,6.32
2022-09-25T00:43:59.497Z,6.78
2022-09-25T00:46:34.721Z,8.20
2022-09-25T00:49:07.419Z,8.25
2022-09-25T00:51:38.512Z,8.05
2022-09-25T00:54:06.604Z,7.25
2022-09-25T00:56:37.209Z,7.55
2022-09-25T00:59:04.547Z,9.63
2022-09-25T01:01:31.249Z,9.20
2022-09-25T01:03:57.938Z,10.02
2022-09-25T01:06:25.592Z,8.85
2022-09-25T01:08:52.218Z,8.95
2022-09-25T01:11:18.861Z,10.73
2022-09-25T01:13:45.873Z,11.05
2022-09-25T01:16:30.840Z,9.02
2022-09-25T01:19:20.301Z,9.05
2022-09-25T01:21:52.765Z,9.50
2022-09-25T01:24:45.776Z,8.98
2022-09-25T01:27:19.103Z,7.75
2022-09-25T01:29:50.580Z,9.27
2022-09-25T01:32:24.313Z,7.65
2022-09-25T01:34:59.817Z,9.20
2022-09-25T01:37:29.900Z,7.68
2022-09-25T01:40:01.775Z,8.75
2022-09-25T01:42:31.721Z,7.65
2022-09-25T01:45:04.444Z,9.32
2022-09-25T01:47:34.577Z,8.32
2022-09-25T01:50:03.537Z,8.90
2022-09-25T01:52:43.170Z,9.82
2022-09-25T01:55:12.360Z,8.15
2022-09-25T01:57:49.362Z,7.43
2022-09-25T02:00:18.983Z,27.80
2022-09-25T02:02:48.329Z,15.00
2022-09-25T02:05:20.381Z,13.70
2022-09-25T02:07:54.821Z,16.63
2022-09-25T02:10:23.232Z,17.60
2022-09-25T02:12:52.037Z,14.00
2022-09-25T02:15:41.658Z,12.32
2022-09-25T02:18:29.360Z,15.38
2022-09-25T02:21:11.417Z,12.63
2022-09-25T02:23:45.011Z,14.40
2022-09-25T02:26:14.729Z,12.77
2022-09-25T02:28:41.326Z,20.80
2022-09-25T02:31:10.152Z,17.27
2022-09-25T02:33:36.833Z,13.65
2022-09-25T02:36:04.338Z,12.85
2022-09-25T02:38:33.723Z,12.65
2022-09-25T02:41:03.231Z,15.50
2022-09-25T02:43:48.408Z,16.17
2022-09-25T02:46:23.963Z,13.57
2022-09-25T02:48:54.106Z,16.05
2022-09-25T02:51:36.776Z,13.25
2022-09-25T02:54:14.133Z,13.07
2022-09-25T02:56:44.736Z,13.02
2022-09-25T02:59:26.812Z,14.80
2022-09-25T03:01:54.455Z,13.25
2022-09-25T03:04:21.730Z,12.65
2022-09-25T03:06:48.349Z,12.65
2022-09-25T03:09:15.703Z,12.60
2022-09-25T03:11:43.745Z,12.20
2022-09-25T03:14:10.572Z,12.00
2022-09-25T03:16:48.008Z,12.02
2022-09-25T03:19:16.132Z,11.05
2022-09-25T03:21:42.829Z,10.50
2022-09-25T03:24:09.924Z,11.20
2022-09-25T03:26:36.756Z,11.95
2022-09-25T03:29:03.847Z,10.75
2022-09-25T03:31:30.753Z,9.35
2022-09-25T03:33:58.019Z,9.13
2022-09-25T03:36:26.705Z,9.20
2022-09-25T03:38:57.901Z,8.85
2022-09-25T03:41:25.400Z,9.88
2022-09-25T03:43:52.134Z,8.15
2022-09-25T03:46:20.422Z,8.40
2022-09-25T03:48:47.038Z,8.00
2022-09-25T03:51:14.036Z,8.65
2022-09-25T03:53:40.705Z,8.05
2022-09-25T03:56:09.001Z,8.00
2022-09-25T03:58:35.694Z,8.40
2022-09-25T04:01:02.723Z,12.93
2022-09-25T04:03:30.048Z,16.60
2022-09-25T04:05:58.040Z,18.02
2022-09-25T04:08:26.912Z,17.30
2022-09-25T04:10:56.219Z,16.42
2022-09-25T04:13:23.353Z,15.45
2022-09-25T04:15:50.302Z,15.88
2022-09-25T04:18:17.082Z,15.30
2022-09-25T04:20:43.686Z,13.60
2022-09-25T04:23:10.308Z,12.50
2022-09-25T04:25:36.932Z,12.70
2022-09-25T04:28:05.230Z,14.25
2022-09-25T04:30:31.876Z,14.07
2022-09-25T04:33:17.193Z,15.93
2022-09-25T04:35:44.064Z,14.95
2022-09-25T04:38:10.735Z,16.45
2022-09-25T04:40:37.782Z,15.55
2022-09-25T04:43:05.287Z,11.80
2022-09-25T04:45:34.345Z,13.80
2022-09-25T04:48:01.486Z,13.60
2022-09-25T04:50:28.797Z,13.32
2022-09-25T04:53:01.810Z,12.50
2022-09-25T04:55:28.441Z,10.73
2022-09-25T04:57:59.658Z,10.82
2022-09-25T05:00:30.534Z,12.45
2022-09-25T05:02:57.486Z,11.07
2022-09-25T05:05:28.103Z,10.60
2022-09-25T05:07:55.662Z,13.23
2022-09-25T05:10:22.881Z,12.05
2022-09-25T05:12:54.277Z,10.80
2022-09-25T05:15:21.174Z,11.27
2022-09-25T05:17:47.839Z,11.07
2022-09-25T05:20:14.700Z,10.93
2022-09-25T05:22:41.294Z,10.48
2022-09-25T05:25:08.187Z,10.48
2022-09-25T05:27:34.758Z,11.55
2022-09-25T05:30:01.797Z,10.85
2022-09-25T05:32:28.404Z,13.73
2022-09-25T05:34:55.027Z,15.25
2022-09-25T05:37:21.877Z,14.10
2022-09-25T05:39:48.535Z,13.80
2022-09-25T05:42:17.191Z,15.05
2022-09-25T05:44:43.835Z,14.82
2022-09-25T05:47:10.439Z,16.27
2022-09-25T05:49:37.010Z,17.67
2022-09-25T05:52:03.796Z,19.95
2022-09-25T05:54:30.427Z,18.95
2022-09-25T05:56:56.992Z,19.20
2022-09-25T05:59:23.575Z,18.42
2022-09-25T06:01:51.155Z,18.00
2022-09-25T06:04:17.790Z,14.98
2022-09-25T06:06:44.364Z,16.45
2022-09-25T06:09:10.947Z,14.20
2022-09-25T06:11:37.557Z,15.25
2022-09-25T06:14:04.294Z,15.20
2022-09-25T06:16:31.182Z,19.80
2022-09-25T06:18:57.941Z,16.27
2022-09-25T06:21:24.557Z,17.45
2022-09-25T06:23:51.489Z,15.52
2022-09-25T06:26:18.132Z,16.00
2022-09-25T06:28:44.795Z,15.38
2022-09-25T06:31:11.513Z,14.75
2022-09-25T06:33:38.232Z,14.73
2022-09-25T06:36:05.536Z,13.10
2022-09-25T06:38:35.107Z,14.98
2022-09-25T06:41:02.124Z,12.38
2022-09-25T06:43:28.875Z,14.45
2022-09-25T06:45:55.703Z,14.90
2022-09-25T06:48:23.054Z,12.00
2022-09-25T06:50:55.156Z,12.23
2022-09-25T06:53:22.673Z,14.40
2022-09-25T06:55:49.660Z,12.65
2022-09-25T06:58:20.917Z,15.77
2022-09-25T07:00:51.437Z,12.85
2022-09-25T07:03:36.826Z,12.25
2022-09-25T07:06:04.273Z,11.60
2022-09-25T07:08:31.125Z,11.32
2022-09-25T07:10:58.388Z,14.07
2022-09-25T07:13:29.955Z,12.55
2022-09-25T07:15:57.900Z,11.18
2022-09-25T07:18:25.013Z,11.90
2022-09-25T07:20:52.925Z,10.93
2022-09-25T07:23:20.746Z,13.57
2022-09-25T07:25:47.857Z,9.23
2022-09-25T07:28:15.044Z,9.55
2022-09-25T07:30:43.111Z,8.70
2022-09-25T07:33:09.899Z,11.80
2022-09-25T07:35:37.049Z,9.75
2022-09-25T07:38:04.250Z,9.13
2022-09-25T07:40:32.151Z,9.85
2022-09-25T07:42:59.955Z,10.63
2022-09-25T07:45:26.903Z,10.60
2022-09-25T07:47:57.267Z,13.07
2022-09-25T07:50:24.078Z,10.25
2022-09-25T07:52:50.648Z,10.48
2022-09-25T07:55:18.422Z,10.25
2022-09-25T07:57:45.355Z,10.57
2022-09-25T08:00:12.942Z,12.93
2022-09-25T08:02:41.857Z,11.90
2022-09-25T08:05:09.123Z,9.95
2022-09-25T08:07:38.165Z,12.77
2022-09-25T08:10:05.216Z,10.82
2022-09-25T08:12:31.941Z,11.55
2022-09-25T08:14:58.562Z,11.48
2022-09-25T08:17:27.534Z,10.77
2022-09-25T08:19:54.162Z,11.00
2022-09-25T08:22:20.712Z,10.18
2022-09-25T08:24:48.751Z,10.40
2022-09-25T08:27:15.390Z,9.68
2022-09-25T08:29:41.988Z,10.07
2022-09-25T08:32:09.562Z,9.88
2022-09-25T08:34:40.916Z,10.45
2022-09-25T08:37:08.983Z,12.02
2022-09-25T08:39:35.614Z,8.70
2022-09-25T08:42:02.612Z,9.73
2022-09-25T08:44:37.343Z,9.43
2022-09-25T08:47:25.767Z,8.52
2022-09-25T08:50:15.089Z,8.93
2022-09-25T08:52:44.603Z,9.32
2022-09-25T08:55:22.823Z,8.50
2022-09-25T08:57:50.251Z,10.60
2022-09-25T09:00:17.369Z,12.65
2022-09-25T09:02:50.529Z,9.30
2022-09-25T09:05:30.538Z,9.15
2022-09-25T09:08:08.165Z,9.23
2022-09-25T09:10:42.791Z,9.07
2022-09-25T09:13:09.531Z,8.05
2022-09-25T09:15:41.164Z,10.02
2022-09-25T09:18:28.139Z,7.97
2022-09-25T09:20:56.258Z,7.93
2022-09-25T09:23:24.221Z,8.40
2022-09-25T09:25:56.047Z,9.90
2022-09-25T09:28:36.914Z,8.88
2022-09-25T09:31:12.948Z,7.82
2022-09-25T09:33:45.559Z,8.98
2022-09-25T09:36:41.554Z,8.05
2022-09-25T09:39:20.779Z,8.68
2022-09-25T09:42:06.616Z,7.88
2022-09-25T09:44:36.225Z,9.95
2022-09-25T09:47:08.709Z,7.90
2022-09-25T09:49:47.089Z,8.43
2022-09-25T09:52:17.430Z,8.27
2022-09-25T09:54:46.551Z,9.50
2022-09-25T09:57:17.531Z,8.85
2022-09-25T09:59:53.845Z,11.85
2022-09-25T10:02:23.666Z,8.63
2022-09-25T10:04:51.428Z,9.30
2022-09-25T10:07:22.441Z,8.35
2022-09-25T10:09:49.613Z,9.43
2022-09-25T10:12:22.382Z,8.82
2022-09-25T10:14:49.127Z,8.60
2022-09-25T10:17:15.823Z,8.63
2022-09-25T10:19:45.521Z,8.70
2022-09-25T10:22:17.154Z,9.02
2022-09-25T10:24:51.507Z,9.63
2022-09-25T10:27:28.500Z,9.02
2022-09-25T10:30:02.135Z,7.65
2022-09-25T10:32:29.703Z,8.63
2022-09-25T10:34:56.470Z,7.57
2022-09-25T10:37:23.581Z,9.07
2022-09-25T10:40:04.228Z,8.75
2022-09-25T10:42:33.168Z,8.02
2022-09-25T10:44:59.915Z,8.15
2022-09-25T10:47:47.989Z,7.43
2022-09-25T10:50:17.348Z,7.68
2022-09-25T10:53:00.098Z,7.68
2022-09-25T10:55:28.699Z,7.00
2022-09-25T10:57:58.703Z,6.07
2022-09-25T11:00:26.815Z,7.15
2022-09-25T11:02:59.802Z,7.22
2022-09-25T11:05:28.923Z,4.88
2022-09-25T11:07:57.752Z,6.43
2022-09-25T11:10:27.686Z,5.13
2022-09-25T11:12:54.671Z,5.30
2022-09-25T11:15:23.665Z,5.97
2022-09-25T11:17:51.569Z,5.05
2022-09-25T11:20:32.768Z,7.47
2022-09-25T11:22:59.479Z,5.68
2022-09-25T11:25:28.853Z,7.50
2022-09-25T11:28:11.718Z,6.30
2022-09-25T11:30:46.754Z,5.28
2022-09-25T11:33:24.608Z,7.57
2022-09-25T11:36:07.251Z,6.50
2022-09-25T11:38:58.165Z,4.72
2022-09-25T11:41:43.763Z,6.95
2022-09-25T11:44:22.691Z,5.53
2022-09-25T11:46:54.897Z,6.60
2022-09-25T11:49:32.136Z,5.22
2022-09-25T11:52:17.313Z,6.10
2022-09-25T11:54:58.934Z,4.55
2022-09-25T11:57:40.165Z,5.47
2022-09-25T12:00:26.607Z,5.72
2022-09-25T12:02:59.168Z,4.57
2022-09-25T12:05:37.939Z,9.27
2022-09-25T12:08:07.549Z,4.47
2022-09-25T12:10:43.764Z,4.88
2022-09-25T12:13:16.642Z,5.25
2022-09-25T12:15:48.298Z,4.88
2022-09-25T12:18:34.402Z,5.05
2022-09-25T12:21:04.492Z,4.28
2022-09-25T12:23:39.061Z,5.03
2022-09-25T12:26:24.208Z,4.07
2022-09-25T12:28:53.631Z,4.43
2022-09-25T12:31:41.617Z,4.93
2022-09-25T12:34:26.938Z,7.00
2022-09-25T12:37:08.104Z,5.22
2022-09-25T12:39:35.462Z,4.53
2022-09-25T12:42:18.814Z,5.32
2022-09-25T12:44:55.185Z,4.47
2022-09-25T12:47:33.182Z,4.88
2022-09-25T12:50:09.462Z,3.63
2022-09-25T12:52:39.833Z,5.68
2022-09-25T12:55:13.741Z,4.03
2022-09-25T12:57:48.240Z,3.35
2022-09-25T13:00:19.942Z,3.85
2022-09-25T13:02:54.830Z,3.83
2022-09-25T13:05:22.235Z,4.85
2022-09-25T13:08:10.357Z,2.95
2022-09-25T13:10:43.559Z,4.13
2022-09-25T13:13:19.332Z,4.85
2022-09-25T13:15:48.508Z,8.40
2022-09-25T13:18:22.468Z,4.60
2022-09-25T13:20:49.262Z,3.45
2022-09-25T13:23:18.763Z,3.55
2022-09-25T13:26:04.914Z,5.15
2022-09-25T13:28:33.430Z,3.95
2022-09-25T13:31:09.123Z,4.22
2022-09-25T13:33:38.603Z,3.95
2022-09-25T13:36:08.623Z,5.45
2022-09-25T13:38:57.915Z,3.95
2022-09-25T13:41:24.937Z,2.88
2022-09-25T13:44:11.442Z,4.10
2022-09-25T13:46:38.205Z,3.13
2022-09-25T13:49:25.206Z,3.35
2022-09-25T13:51:51.878Z,3.10
2022-09-25T13:54:18.499Z,2.75
2022-09-25T13:56:47.952Z,3.72
2022-09-25T13:59:15.718Z,5.05
2022-09-25T14:01:51.066Z,2.72
2022-09-25T14:04:29.114Z,2.60
2022-09-25T14:07:16.011Z,3.20
2022-09-25T14:09:44.590Z,5.95
2022-09-25T14:12:25.986Z,3.10
2022-09-25T14:15:13.392Z,4.43
2022-09-25T14:17:42.007Z,4.00
2022-09-25T14:20:25.470Z,4.68
2022-09-25T14:22:56.213Z,7.28
2022-09-25T14:25:27.981Z,5.78
2022-09-25T14:27:55.223Z,4.90
2022-09-25T14:30:21.886Z,6.35
2022-09-25T14:33:03.698Z,4.28
2022-09-25T14:35:51.516Z,4.40
2022-09-25T14:38:24.370Z,2.70
2022-09-25T14:41:03.002Z,3.38
2022-09-25T14:43:30.044Z,3.92
2022-09-25T14:45:56.623Z,3.97
2022-09-25T14:48:25.785Z,3.60
2022-09-25T14:50:55.741Z,3.00
2022-09-25T14:53:31.038Z,4.32
2022-09-25T14:55:58.594Z,4.40
2022-09-25T14:58:27.806Z,2.83
2022-09-25T15:01:00.112Z,3.10
2022-09-25T15:03:31.099Z,3.42
2022-09-25T15:05:59.665Z,2.70
2022-09-25T15:08:29.319Z,3.22
2022-09-25T15:11:22.577Z,4.47
2022-09-25T15:13:49.212Z,3.65
2022-09-25T15:16:39.445Z,3.50
2022-09-25T15:19:20.687Z,5.13
2022-09-25T15:21:47.653Z,4.22
2022-09-25T15:24:17.358Z,4.78
2022-09-25T15:27:10.109Z,8.60
2022-09-25T15:29:37.517Z,5.25
2022-09-25T15:32:05.202Z,3.45
2022-09-25T15:34:32.729Z,3.38
2022-09-25T15:37:25.846Z,3.17
2022-09-25T15:39:52.861Z,3.08
2022-09-25T15:42:19.739Z,2.38
2022-09-25T15:44:46.620Z,2.10
2022-09-25T15:47:32.151Z,4.10
2022-09-25T15:49:58.777Z,2.95
2022-09-25T15:52:32.710Z,4.22
2022-09-25T15:55:00.698Z,2.90
2022-09-25T15:57:29.014Z,4.57
2022-09-25T16:00:14.691Z,7.03
2022-09-25T16:03:16.382Z,3.40
2022-09-25T16:05:45.421Z,3.90
2022-09-25T16:08:24.349Z,5.18
2022-09-25T16:11:16.154Z,7.15
2022-09-25T16:13:44.840Z,5.85
2022-09-25T16:16:19.148Z,3.83
2022-09-25T16:18:46.287Z,8.85
2022-09-25T16:21:19.410Z,4.50
2022-09-25T16:24:12.467Z,5.38
2022-09-25T16:26:40.669Z,3.90
2022-09-25T16:29:13.462Z,3.83
2022-09-25T16:31:41.310Z,4.00
2022-09-25T16:34:15.275Z,6.25
2022-09-25T16:36:42.944Z,4.32
2022-09-25T16:39:09.662Z,6.68
2022-09-25T16:41:37.748Z,5.05
2022-09-25T16:44:16.734Z,4.88
2022-09-25T16:46:44.488Z,5.38
2022-09-25T16:49:12.749Z,4.55
2022-09-25T16:51:45.986Z,4.03
2022-09-25T16:54:15.336Z,4.18
2022-09-25T16:56:43.260Z,3.53
2022-09-25T16:59:15.895Z,3.67
2022-09-25T17:01:43.460Z,4.50
2022-09-25T17:04:11.510Z,7.07
2022-09-25T17:06:40.889Z,6.43
2022-09-25T17:09:12.329Z,3.63
2022-09-25T17:11:39.499Z,3.20
2022-09-25T17:14:06.928Z,5.43
2022-09-25T17:16:34.726Z,4.10
2022-09-25T17:19:01.790Z,4.53
2022-09-25T17:21:28.545Z,5.10
2022-09-25T17:23:55.285Z,5.35
2022-09-25T17:26:23.619Z,3.65
2022-09-25T17:28:51.312Z,4.43
2022-09-25T17:31:20.185Z,4.15
2022-09-25T17:33:49.899Z,3.72
2022-09-25T17:36:17.023Z,5.13
2022-09-25T17:38:44.017Z,3.42
2022-09-25T17:41:26.069Z,4.30
2022-09-25T17:43:52.819Z,6.47
2022-09-25T17:46:20.343Z,3.53
2022-09-25T17:48:53.162Z,3.88
2022-09-25T17:51:20.963Z,4.10
2022-09-25T17:53:49.194Z,4.97
2022-09-25T17:56:16.153Z,4.88
2022-09-25T17:58:45.540Z,6.03
2022-09-25T18:01:21.694Z,4.90
2022-09-25T18:03:52.077Z,5.63
2022-09-25T18:06:19.808Z,5.88
2022-09-25T18:08:46.984Z,4.53
2022-09-25T18:11:14.106Z,4.35
2022-09-25T18:13:41.787Z,6.03
2022-09-25T18:16:20.237Z,5.07
2022-09-25T18:19:05.968Z,5.55
2022-09-25T18:21:51.326Z,5.97
2022-09-25T18:24:17.926Z,7.85
2022-09-25T18:26:46.184Z,4.18
2022-09-25T18:29:14.528Z,5.60
2022-09-25T18:31:41.282Z,4.68
2022-09-25T18:34:08.024Z,4.80
2022-09-25T18:36:34.729Z,4.40
2022-09-25T18:39:01.644Z,5.65
2022-09-25T18:41:28.291Z,4.78
2022-09-25T18:43:54.927Z,4.30
2022-09-25T18:46:21.657Z,4.05
2022-09-25T18:48:48.618Z,4.82
2022-09-25T18:51:15.777Z,4.90
2022-09-25T18:53:42.882Z,4.82
2022-09-25T18:56:09.547Z,3.10
2022-09-25T18:58:36.305Z,4.93
2022-09-25T19:01:05.748Z,3.58
2022-09-25T19:03:35.856Z,4.47
2022-09-25T19:06:08.254Z,3.20
2022-09-25T19:08:36.201Z,2.80
2022-09-25T19:11:02.877Z,3.75
2022-09-25T19:13:29.533Z,4.18
2022-09-25T19:16:01.183Z,4.35
2022-09-25T19:18:29.748Z,4.80
2022-09-25T19:20:56.375Z,6.85
2022-09-25T19:23:24.216Z,4.13
2022-09-25T19:26:01.156Z,5.25
2022-09-25T19:28:29.106Z,4.55
2022-09-25T19:30:57.122Z,6.40
2022-09-25T19:33:23.866Z,5.85
2022-09-25T19:35:50.493Z,6.95
2022-09-25T19:38:17.110Z,5.55
2022-09-25T19:40:43.817Z,5.78
2022-09-25T19:43:10.503Z,6.38
2022-09-25T19:45:37.266Z,5.72
2022-09-25T19:48:04.052Z,5.50
2022-09-25T19:50:30.717Z,4.88
2022-09-25T19:52:57.453Z,6.05
2022-09-25T19:55:24.151Z,6.80
2022-09-25T19:57:50.888Z,5.63
2022-09-25T20:00:18.298Z,5.22
2022-09-25T20:02:46.519Z,6.07
2022-09-25T20:05:13.298Z,7.65
2022-09-25T20:07:39.962Z,6.40
2022-09-25T20:10:06.731Z,5.78
2022-09-25T20:12:33.347Z,6.18
2022-09-25T20:15:00.029Z,6.32
2022-09-25T20:17:26.674Z,5.47
2022-09-25T20:19:53.354Z,8.48
2022-09-25T20:22:19.950Z,6.35
2022-09-25T20:24:49.009Z,6.80
2022-09-25T20:27:18.567Z,6.65
2022-09-25T20:29:48.385Z,6.22
2022-09-25T20:32:14.951Z,5.95
2022-09-25T20:34:41.508Z,5.85
2022-09-25T20:37:10.537Z,7.35
2022-09-25T20:39:37.173Z,7.75
2022-09-25T20:42:03.846Z,6.53
2022-09-25T20:44:30.458Z,7.35
2022-09-25T20:46:57.136Z,6.32
2022-09-25T20:49:23.840Z,5.97
2022-09-25T20:51:50.393Z,5.57
2022-09-25T20:54:17.066Z,6.07
2022-09-25T20:56:44.877Z,5.57
2022-09-25T20:59:12.160Z,6.28
2022-09-25T21:01:40.832Z,6.40
2022-09-25T21:04:08.351Z,6.50
2022-09-25T21:06:35.894Z,7.35
2022-09-25T21:09:06.000Z,7.78
2022-09-25T21:11:33.331Z,6.03
2022-09-25T21:14:02.468Z,6.13
2022-09-25T21:16:30.144Z,6.40
2022-09-25T21:18:57.847Z,6.10
2022-09-25T21:21:25.056Z,7.03
2022-09-25T21:23:53.868Z,6.68
2022-09-25T21:26:21.095Z,6.45
2022-09-25T21:28:50.417Z,7.15
2022-09-25T21:31:24.265Z,6.82
2022-09-25T21:33:52.733Z,6.35
2022-09-25T21:36:20.031Z,6.88
2022-09-25T21:38:47.076Z,9.85
2022-09-25T21:41:14.882Z,5.85
2022-09-25T21:43:41.940Z,7.30
2022-09-25T21:46:11.646Z,7.30
2022-09-25T21:48:39.619Z,5.43
2022-09-25T21:51:07.223Z,6.45
2022-09-25T21:53:34.260Z,6.00
2022-09-25T21:56:05.586Z,5.75
2022-09-25T21:58:32.935Z,6.95
2022-09-25T22:01:09.997Z,5.43
2022-09-25T22:03:37.593Z,5.50
2022-09-25T22:06:06.551Z,5.28
2022-09-25T22:08:34.795Z,5.60
2022-09-25T22:11:02.173Z,6.53
2022-09-25T22:13:30.528Z,5.82
2022-09-25T22:16:01.272Z,6.82
2022-09-25T22:18:28.269Z,6.28
2022-09-25T22:20:55.138Z,5.38
2022-09-25T22:23:22.606Z,5.50
2022-09-25T22:25:51.204Z,4.82
2022-09-25T22:28:18.728Z,4.30
2022-09-25T22:30:45.677Z,4.70
2022-09-25T22:33:12.492Z,4.93
2022-09-25T22:35:39.321Z,6.55
2022-09-25T22:38:05.937Z,5.50
2022-09-25T22:40:35.449Z,7.05
2022-09-25T22:43:02.270Z,5.68
2022-09-25T22:45:29.384Z,5.30
2022-09-25T22:47:57.904Z,4.93
2022-09-25T22:50:24.653Z,5.70
2022-09-25T22:52:54.180Z,8.05
2022-09-25T22:55:24.833Z,6.03
2022-09-25T22:57:51.544Z,5.40
2022-09-25T23:00:18.141Z,5.72
2022-09-25T23:02:45.075Z,5.22
2022-09-25T23:05:12.696Z,5.47
2022-09-25T23:07:39.479Z,5.45
2022-09-25T23:10:06.511Z,5.38
2022-09-25T23:12:33.129Z,6.07
2022-09-25T23:14:59.749Z,5.80
2022-09-25T23:17:26.488Z,6.28
2022-09-25T23:19:53.075Z,6.90
2022-09-25T23:22:20.063Z,8.60
2022-09-25T23:24:46.628Z,4.95
2022-09-25T23:27:13.226Z,4.90
2022-09-25T23:29:39.815Z,5.03
2022-09-25T23:32:08.149Z,4.45
2022-09-25T23:34:34.754Z,4.38
2022-09-25T23:37:01.347Z,5.60
2022-09-25T23:39:28.011Z,7.43
2022-09-25T23:41:54.630Z,7.78
2022-09-25T23:44:21.250Z,4.28
2022-09-25T23:46:47.912Z,4.25
2022-09-25T23:49:15.826Z,4.10
2022-09-25T23:51:42.582Z,3.88
2022-09-25T23:54:09.606Z,3.88
2022-09-25T23:56:36.349Z,3.85
2022-09-25T23:59:03.827Z,4.10
